Cheyenne — 9HAK5 — position and weather

sailwx.info

Track history (hours):
 
Tides and Currents Weather Stations Pressure Air Temp Water Temp Dewpoint Dewpoint Depression Visibility Wind Speed Wind Dir Waves Ship Positions

Cheyenne

Last reported at 2015-Apr-22 11:32 UTC. Time now 2015-May-28 08:08 UTC.
Position N 40°50' E 029°16'.
Warning: this ship's position is 35 days out of date.

Length 133 m; draft 2.9 m.

Type: Cargo ship. MMSI: 249607000.

Date/timePositionNaut miles runAvg speedWind from/ knotsBaromVisibWave heightAir tempDewpointWater temp
2015-Apr-22 11:32N 40°50' E 029°16'1 0.7
2015-Apr-22 10:33N 40°51' E 029°16'1 1.1
2015-Apr-22 09:10N 40°50' E 029°15'0 0.1
2015-Apr-22 08:33N 40°50' E 029°15'0 0.1
2015-Apr-22 07:14N 40°50' E 029°15'0 0.0
2015-Apr-22 06:32N 40°50' E 029°15'0 0.0
2015-Apr-21 18:27N 40°50' E 029°15'0 0.1
2015-Apr-21 17:33N 40°50' E 029°15'0 0.0
2015-Apr-21 16:11N 40°50' E 029°15'0 0.1
2015-Apr-21 15:27N 40°50' E 029°15'0 0.0
2015-Apr-21 14:28N 40°50' E 029°15'0 0.0
2015-Apr-21 13:31N 40°50' E 029°15'0 0.0
2015-Apr-21 12:31N 40°50' E 029°15'0 0.0
2015-Apr-21 11:29N 40°50' E 029°15'0 0.0
2015-Apr-21 10:33N 40°50' E 029°15'0 0.0
2015-Apr-21 09:33N 40°50' E 029°15'0 0.0
2015-Apr-21 08:32N 40°50' E 029°15'0 0.0
2015-Apr-21 07:26N 40°50' E 029°15'0 0.1
2015-Apr-21 06:30N 40°50' E 029°15'0 0.0
2015-Apr-21 05:24N 40°50' E 029°15'0 0.0
2015-Apr-21 04:32N 40°50' E 029°15'0 0.0
2015-Apr-21 03:21N 40°50' E 029°15'0 0.0
2015-Apr-21 02:32N 40°50' E 029°15'0 0.0
2015-Apr-21 01:16N 40°50' E 029°15'0 0.0
2015-Apr-21 00:28N 40°50' E 029°15'0 0.1
2015-Apr-20 23:34N 40°50' E 029°15'0 0.1
2015-Apr-20 22:33N 40°50' E 029°15'0 0.0
2015-Apr-20 21:34N 40°50' E 029°15'0 0.0
2015-Apr-20 20:29N 40°50' E 029°15'0 0.1
2015-Apr-20 19:28N 40°50' E 029°15'0 0.0
2015-Apr-20 18:26N 40°50' E 029°15'0 0.0
2015-Apr-20 17:29N 40°50' E 029°15'0 0.0
2015-Apr-20 16:33N 40°50' E 029°15'0 0.0
2015-Apr-20 15:27N 40°50' E 029°15'0 0.0
2015-Apr-20 14:31N 40°50' E 029°15'0 0.0
2015-Apr-20 13:13N 40°50' E 029°15'0 0.0
2015-Apr-20 12:28N 40°50' E 029°15'0 0.0
2015-Apr-20 11:29N 40°50' E 029°15'0 0.0
2015-Apr-20 10:15N 40°50' E 029°15'0 0.0
2015-Apr-20 09:30N 40°50' E 029°15'0 0.0
2015-Apr-20 08:14N 40°50' E 029°15'0 0.1
2015-Apr-20 05:28N 40°50' E 029°15'0 0.0
2015-Apr-20 04:27N 40°50' E 029°15'0 0.0
2015-Apr-20 03:26N 40°50' E 029°15'0 0.0
2015-Apr-20 02:16N 40°50' E 029°15'0 0.0
2015-Apr-20 01:26N 40°50' E 029°15'0 0.0
2015-Apr-20 00:33N 40°50' E 029°15'0 0.0
2015-Apr-19 23:33N 40°50' E 029°15'0 0.0
2015-Apr-19 22:28N 40°50' E 029°15'0 0.0
2015-Apr-19 17:04N 40°50' E 029°15'0 0.0
2015-Apr-19 16:33N 40°50' E 029°15'0 0.0
2015-Apr-19 15:33N 40°50' E 029°15'0 0.0
2015-Apr-19 14:33N 40°50' E 029°15'4 3.5
2015-Apr-19 13:33N 40°49' E 029°10'7 7.1
2015-Apr-19 12:33N 40°46' E 029°01'7 7.2
2015-Apr-19 11:32N 40°45' E 028°52'7 6.9
2015-Apr-19 10:33N 40°44' E 028°43'  
Track history (hours):
 
Tides and Currents Weather Stations Pressure Air Temp Water Temp Dewpoint Dewpoint Depression Visibility Wind Speed Wind Dir Waves Ship Positions

Cheyenne

Last reported at 2015-Apr-22 11:32 UTC. Time now 2015-May-28 08:08 UTC.
Position N 40°50' E 029°16'.
Warning: this ship's position is 35 days out of date.

Length 133 m; draft 2.9 m.

Type: Cargo ship. MMSI: 249607000.

Date/timePositionNaut miles runAvg speedWind from/ knotsBaromVisibWave heightAir tempDewpointWater temp
2015-Apr-22 11:32N 40°50' E 029°16'1 0.7
2015-Apr-22 10:33N 40°51' E 029°16'1 1.1
2015-Apr-22 09:10N 40°50' E 029°15'0 0.1
2015-Apr-22 08:33N 40°50' E 029°15'0 0.1
2015-Apr-22 07:14N 40°50' E 029°15'0 0.0
2015-Apr-22 06:32N 40°50' E 029°15'0 0.0
2015-Apr-21 18:27N 40°50' E 029°15'0 0.1
2015-Apr-21 17:33N 40°50' E 029°15'0 0.0
2015-Apr-21 16:11N 40°50' E 029°15'0 0.1
2015-Apr-21 15:27N 40°50' E 029°15'0 0.0
2015-Apr-21 14:28N 40°50' E 029°15'0 0.0
2015-Apr-21 13:31N 40°50' E 029°15'0 0.0
2015-Apr-21 12:31N 40°50' E 029°15'0 0.0
2015-Apr-21 11:29N 40°50' E 029°15'0 0.0
2015-Apr-21 10:33N 40°50' E 029°15'0 0.0
2015-Apr-21 09:33N 40°50' E 029°15'0 0.0
2015-Apr-21 08:32N 40°50' E 029°15'0 0.0
2015-Apr-21 07:26N 40°50' E 029°15'0 0.1
2015-Apr-21 06:30N 40°50' E 029°15'0 0.0
2015-Apr-21 05:24N 40°50' E 029°15'0 0.0
2015-Apr-21 04:32N 40°50' E 029°15'0 0.0
2015-Apr-21 03:21N 40°50' E 029°15'0 0.0
2015-Apr-21 02:32N 40°50' E 029°15'0 0.0
2015-Apr-21 01:16N 40°50' E 029°15'0 0.0
2015-Apr-21 00:28N 40°50' E 029°15'0 0.1
2015-Apr-20 23:34N 40°50' E 029°15'0 0.1
2015-Apr-20 22:33N 40°50' E 029°15'0 0.0
2015-Apr-20 21:34N 40°50' E 029°15'0 0.0
2015-Apr-20 20:29N 40°50' E 029°15'0 0.1
2015-Apr-20 19:28N 40°50' E 029°15'0 0.0
2015-Apr-20 18:26N 40°50' E 029°15'0 0.0
2015-Apr-20 17:29N 40°50' E 029°15'0 0.0
2015-Apr-20 16:33N 40°50' E 029°15'0 0.0
2015-Apr-20 15:27N 40°50' E 029°15'0 0.0
2015-Apr-20 14:31N 40°50' E 029°15'0 0.0
2015-Apr-20 13:13N 40°50' E 029°15'0 0.0
2015-Apr-20 12:28N 40°50' E 029°15'0 0.0
2015-Apr-20 11:29N 40°50' E 029°15'0 0.0
2015-Apr-20 10:15N 40°50' E 029°15'0 0.0
2015-Apr-20 09:30N 40°50' E 029°15'0 0.0
2015-Apr-20 08:14N 40°50' E 029°15'0 0.1
2015-Apr-20 05:28N 40°50' E 029°15'0 0.0
2015-Apr-20 04:27N 40°50' E 029°15'0 0.0
2015-Apr-20 03:26N 40°50' E 029°15'0 0.0
2015-Apr-20 02:16N 40°50' E 029°15'0 0.0
2015-Apr-20 01:26N 40°50' E 029°15'0 0.0
2015-Apr-20 00:33N 40°50' E 029°15'0 0.0
2015-Apr-19 23:33N 40°50' E 029°15'0 0.0
2015-Apr-19 22:28N 40°50' E 029°15'0 0.0
2015-Apr-19 17:04N 40°50' E 029°15'0 0.0
2015-Apr-19 16:33N 40°50' E 029°15'0 0.0
2015-Apr-19 15:33N 40°50' E 029°15'0 0.0
2015-Apr-19 14:33N 40°50' E 029°15'4 3.5
2015-Apr-19 13:33N 40°49' E 029°10'7 7.1
2015-Apr-19 12:33N 40°46' E 029°01'7 7.2
2015-Apr-19 11:32N 40°45' E 028°52'7 6.9
2015-Apr-19 10:33N 40°44' E 028°43'  

Dump ship's entire track history